createdAt,value
2024-04-13T00:02:20.194Z,13.33
2024-04-13T00:04:47.622Z,13.50
2024-04-13T00:07:14.937Z,13.49
2024-04-13T00:09:42.139Z,13.38
2024-04-13T00:12:09.365Z,13.37
2024-04-13T00:14:36.579Z,13.58
2024-04-13T00:17:04.458Z,13.59
2024-04-13T00:19:34.735Z,13.47
2024-04-13T00:22:02.042Z,13.41
2024-04-13T00:24:29.392Z,13.54
2024-04-13T00:26:56.852Z,13.63
2024-04-13T00:29:24.110Z,13.52
2024-04-13T00:31:51.365Z,13.45
2024-04-13T00:34:19.004Z,13.56
2024-04-13T00:36:47.982Z,13.69
2024-04-13T00:39:15.567Z,13.64
2024-04-13T00:41:42.931Z,13.56
2024-04-13T00:44:10.123Z,13.55
2024-04-13T00:46:41.002Z,13.72
2024-04-13T00:49:15.076Z,13.76
2024-04-13T00:51:45.117Z,13.69
2024-04-13T00:54:17.761Z,13.64
2024-04-13T00:56:45.736Z,13.72
2024-04-13T00:59:12.997Z,13.88
2024-04-13T01:01:40.288Z,13.83
2024-04-13T01:04:10.210Z,13.76
2024-04-13T01:06:39.631Z,13.74
2024-04-13T01:09:08.191Z,13.78
2024-04-13T01:11:39.644Z,13.93
2024-04-13T01:14:08.926Z,13.99
2024-04-13T01:16:36.666Z,13.90
2024-04-13T01:19:06.092Z,13.85
2024-04-13T01:21:34.288Z,13.82
2024-04-13T01:24:05.334Z,14.00
2024-04-13T01:26:39.737Z,14.01
2024-04-13T01:29:07.499Z,13.90
2024-04-13T01:31:36.185Z,13.84
2024-04-13T01:34:06.381Z,13.85
2024-04-13T01:36:40.872Z,14.06
2024-04-13T01:39:09.743Z,14.08
2024-04-13T01:41:38.303Z,13.99
2024-04-13T01:44:07.091Z,13.92
2024-04-13T01:46:37.430Z,13.91
2024-04-13T01:49:05.955Z,14.13
2024-04-13T01:51:33.732Z,14.24
2024-04-13T01:54:01.681Z,14.08
2024-04-13T01:56:28.920Z,13.98
2024-04-13T01:58:56.467Z,13.92
2024-04-13T02:01:24.089Z,14.09
2024-04-13T02:03:52.104Z,14.26
2024-04-13T02:06:19.558Z,14.16
2024-04-13T02:08:47.643Z,14.00
2024-04-13T02:11:14.884Z,13.87
2024-04-13T02:13:42.168Z,13.87
2024-04-13T02:16:09.697Z,14.12
2024-04-13T02:18:38.400Z,14.12
2024-04-13T02:21:06.799Z,13.99
2024-04-13T02:23:36.613Z,13.88
2024-04-13T02:26:04.074Z,13.85
2024-04-13T02:28:31.428Z,14.04
2024-04-13T02:30:58.671Z,14.01
2024-04-13T02:33:26.101Z,13.91
2024-04-13T02:36:04.481Z,13.83
2024-04-13T02:38:33.404Z,13.80
2024-04-13T02:41:01.216Z,13.93
2024-04-13T02:43:32.398Z,13.95
2024-04-13T02:46:05.579Z,13.85
2024-04-13T02:48:32.908Z,13.76
2024-04-13T02:51:00.227Z,13.74
2024-04-13T02:53:27.475Z,13.88
2024-04-13T02:55:54.739Z,13.84
2024-04-13T03:00:57.275Z,13.45
2024-04-13T03:03:25.167Z,13.80
2024-04-13T03:06:00.758Z,13.96
2024-04-13T03:08:28.262Z,13.86
2024-04-13T03:11:01.621Z,13.75
2024-04-13T03:13:29.528Z,13.69
2024-04-13T03:16:07.895Z,13.81
2024-04-13T03:18:35.696Z,13.89
2024-04-13T03:21:03.519Z,13.76
2024-04-13T03:23:32.773Z,13.63
2024-04-13T03:26:00.268Z,13.62
2024-04-13T03:28:29.382Z,13.82
2024-04-13T03:30:56.994Z,13.82
2024-04-13T03:33:24.952Z,13.75
2024-04-13T03:35:52.386Z,13.67
2024-04-13T03:38:19.613Z,13.77
2024-04-13T03:40:47.583Z,13.91
2024-04-13T03:43:15.699Z,13.83
2024-04-13T03:45:43.686Z,13.77
2024-04-13T03:48:11.881Z,13.74
2024-04-13T03:50:42.637Z,13.88
2024-04-13T03:53:09.889Z,13.97
2024-04-13T03:55:37.254Z,13.90
2024-04-13T03:58:04.688Z,13.80
2024-04-13T04:00:32.422Z,13.75
2024-04-13T04:02:59.665Z,13.87
2024-04-13T04:05:28.487Z,13.97
2024-04-13T04:07:55.712Z,13.90
2024-04-13T04:10:23.733Z,13.77
2024-04-13T04:12:51.093Z,13.78
2024-04-13T04:15:18.438Z,13.90
2024-04-13T04:17:45.708Z,13.98
2024-04-13T04:20:14.208Z,13.91
2024-04-13T04:22:41.952Z,13.87
2024-04-13T04:25:09.514Z,13.97
2024-04-13T04:27:36.815Z,14.24
2024-04-13T04:30:04.794Z,14.30
2024-04-13T04:32:32.355Z,14.22
2024-04-13T04:34:59.749Z,14.16
2024-04-13T04:37:26.947Z,14.20
2024-04-13T04:39:54.178Z,14.32
2024-04-13T04:42:21.414Z,14.37
2024-04-13T04:44:48.768Z,14.30
2024-04-13T04:47:16.510Z,14.18
2024-04-13T04:49:43.802Z,14.13
2024-04-13T04:52:11.011Z,14.18
2024-04-13T04:54:39.107Z,14.24
2024-04-13T04:57:06.563Z,14.28
2024-04-13T04:59:34.596Z,14.22
2024-04-13T05:02:02.024Z,14.18
2024-04-13T05:04:29.359Z,14.36
2024-04-13T05:06:56.797Z,14.53
2024-04-13T05:09:24.516Z,14.45
2024-04-13T05:11:51.750Z,14.33
2024-04-13T05:14:19.811Z,14.30
2024-04-13T05:16:47.872Z,14.44
2024-04-13T05:19:15.319Z,14.65
2024-04-13T05:21:43.336Z,14.68
2024-04-13T05:24:10.721Z,14.73
2024-04-13T05:26:38.049Z,14.75
2024-04-13T05:29:05.473Z,14.74
2024-04-13T05:31:32.650Z,14.74
2024-04-13T05:33:59.877Z,14.77
2024-04-13T05:36:28.991Z,14.77
2024-04-13T05:38:56.298Z,14.85
2024-04-13T05:41:23.459Z,14.95
2024-04-13T05:43:50.704Z,14.96
2024-04-13T05:46:17.913Z,14.96
2024-04-13T05:48:45.464Z,14.95
2024-04-13T05:51:13.279Z,14.95
2024-04-13T05:53:40.717Z,14.98
2024-04-13T05:56:09.777Z,15.07
2024-04-13T05:58:36.995Z,15.13
2024-04-13T06:01:05.899Z,15.14
2024-04-13T06:03:34.832Z,15.13
2024-04-13T06:06:02.313Z,15.17
2024-04-13T06:08:29.653Z,15.24
2024-04-13T06:10:56.879Z,15.28
2024-04-13T06:13:24.263Z,15.24
2024-04-13T06:15:51.496Z,15.23
2024-04-13T06:18:19.872Z,15.28
2024-04-13T06:20:47.527Z,15.34
2024-04-13T06:23:14.791Z,15.46
2024-04-13T06:25:46.439Z,15.68
2024-04-13T06:28:13.624Z,15.88
2024-04-13T06:30:46.901Z,16.02
2024-04-13T06:33:14.884Z,16.20
2024-04-13T06:35:42.195Z,16.38
2024-04-13T06:38:10.066Z,16.50
2024-04-13T06:40:37.258Z,16.63
2024-04-13T06:43:05.071Z,16.69
2024-04-13T06:45:32.313Z,16.79
2024-04-13T06:47:59.609Z,16.97
2024-04-13T06:50:27.249Z,17.14
2024-04-13T06:52:54.648Z,17.33
2024-04-13T06:55:21.911Z,17.50
2024-04-13T06:57:49.434Z,17.62
2024-04-13T07:00:16.981Z,17.63
2024-04-13T07:02:46.611Z,17.67
2024-04-13T07:05:14.453Z,17.84
2024-04-13T07:07:41.631Z,17.89
2024-04-13T07:10:09.762Z,17.80
2024-04-13T07:12:36.982Z,17.64
2024-04-13T07:15:06.229Z,17.63
2024-04-13T07:17:33.443Z,17.68
2024-04-13T07:20:00.631Z,17.75
2024-04-13T07:22:27.909Z,17.65
2024-04-13T07:24:55.172Z,17.79
2024-04-13T07:27:22.544Z,17.82
2024-04-13T07:29:49.948Z,17.81
2024-04-13T07:32:17.168Z,17.92
2024-04-13T07:34:44.386Z,17.93
2024-04-13T07:37:11.969Z,17.76
2024-04-13T07:39:39.340Z,17.66
2024-04-13T07:42:06.771Z,17.51
2024-04-13T07:44:33.993Z,17.40
2024-04-13T07:47:01.366Z,17.34
2024-04-13T07:49:28.699Z,17.25
2024-04-13T07:51:56.169Z,17.16
2024-04-13T07:54:23.511Z,17.09
2024-04-13T07:56:51.019Z,17.15
2024-04-13T07:59:18.257Z,17.25
2024-04-13T08:01:47.145Z,17.41
2024-04-13T08:04:14.929Z,17.60
2024-04-13T08:06:42.455Z,17.68
2024-04-13T08:09:09.895Z,17.66
2024-04-13T08:11:37.204Z,17.69
2024-04-13T08:14:08.792Z,17.76
2024-04-13T08:16:36.262Z,17.75
2024-04-13T08:19:03.573Z,17.87
2024-04-13T08:21:30.837Z,18.10
2024-04-13T08:23:58.246Z,18.24
2024-04-13T08:26:25.651Z,18.13
2024-04-13T08:28:52.956Z,17.90
2024-04-13T08:31:20.307Z,17.80
2024-04-13T08:33:47.690Z,18.04
2024-04-13T08:36:15.167Z,18.18
2024-04-13T08:38:42.472Z,18.26
2024-04-13T08:41:13.881Z,18.34
2024-04-13T08:43:41.214Z,18.42
2024-04-13T08:46:11.362Z,18.48
2024-04-13T08:48:39.482Z,18.54
2024-04-13T08:51:07.728Z,18.48
2024-04-13T08:53:35.323Z,18.39
2024-04-13T08:56:04.371Z,18.38
2024-04-13T08:58:32.407Z,18.37
2024-04-13T09:01:02.831Z,18.46
2024-04-13T09:03:30.418Z,18.66
2024-04-13T09:05:58.158Z,18.77
2024-04-13T09:08:25.680Z,18.82
2024-04-13T09:10:54.377Z,18.82
2024-04-13T09:13:22.170Z,18.83
2024-04-13T09:15:49.540Z,18.91
2024-04-13T09:18:17.063Z,19.01
2024-04-13T09:20:44.743Z,19.15
2024-04-13T09:23:12.105Z,19.19
2024-04-13T09:25:39.474Z,19.11
2024-04-13T09:28:06.840Z,19.15
2024-04-13T09:30:34.253Z,19.22
2024-04-13T09:33:04.468Z,19.25
2024-04-13T09:35:31.871Z,19.19
2024-04-13T09:37:59.745Z,19.08
2024-04-13T09:40:27.608Z,19.06
2024-04-13T09:42:57.889Z,19.13
2024-04-13T09:45:25.684Z,19.20
2024-04-13T09:47:56.850Z,19.18
2024-04-13T09:50:27.281Z,19.12
2024-04-13T09:52:54.799Z,19.17
2024-04-13T09:55:22.560Z,19.19
2024-04-13T09:57:51.464Z,19.11
2024-04-13T10:00:18.965Z,19.02
2024-04-13T10:02:46.455Z,19.05
2024-04-13T10:05:14.087Z,19.30
2024-04-13T10:07:41.518Z,19.50
2024-04-13T10:10:14.422Z,19.71
2024-04-13T10:12:42.378Z,20.07
2024-04-13T10:15:10.890Z,20.36
2024-04-13T10:17:39.508Z,20.47
2024-04-13T10:20:08.017Z,20.44
2024-04-13T10:22:38.567Z,20.38
2024-04-13T10:25:07.914Z,20.32
2024-04-13T10:27:35.805Z,20.20
2024-04-13T10:30:04.576Z,20.22
2024-04-13T10:32:32.286Z,20.29
2024-04-13T10:35:10.227Z,20.37
2024-04-13T10:37:37.880Z,20.46
2024-04-13T10:40:06.753Z,20.58
2024-04-13T10:42:44.562Z,20.77
2024-04-13T10:45:16.722Z,20.86
2024-04-13T10:47:44.523Z,20.85
2024-04-13T10:50:16.036Z,20.85
2024-04-13T10:52:43.456Z,20.78
2024-04-13T10:55:19.019Z,20.64
2024-04-13T10:57:48.977Z,20.64
2024-04-13T11:00:16.472Z,20.73
2024-04-13T11:02:44.633Z,20.84
2024-04-13T11:05:16.348Z,21.02
2024-04-13T11:07:43.997Z,21.14
2024-04-13T11:10:11.494Z,21.18
2024-04-13T11:12:38.803Z,21.29
2024-04-13T11:15:07.129Z,21.38
2024-04-13T11:17:35.610Z,21.37
2024-04-13T11:20:03.064Z,21.40
2024-04-13T11:22:30.388Z,21.49
2024-04-13T11:24:57.779Z,21.64
2024-04-13T11:27:25.348Z,21.84
2024-04-13T11:29:53.071Z,21.99
2024-04-13T11:32:20.381Z,22.07
2024-04-13T11:34:47.668Z,22.22
2024-04-13T11:37:17.776Z,22.28
2024-04-13T11:39:46.925Z,22.09
2024-04-13T11:42:14.645Z,21.84
2024-04-13T11:44:42.212Z,21.52
2024-04-13T11:47:09.922Z,21.31
2024-04-13T11:49:41.542Z,21.32
2024-04-13T11:52:18.672Z,21.54
2024-04-13T11:54:47.095Z,21.57
2024-04-13T11:57:14.762Z,21.51
2024-04-13T11:59:42.425Z,21.53
2024-04-13T12:02:09.800Z,21.50
2024-04-13T12:04:37.284Z,21.20
2024-04-13T12:07:05.664Z,21.13
2024-04-13T12:09:33.065Z,20.94
2024-04-13T12:12:02.712Z,20.83
2024-04-13T12:14:39.690Z,21.04
2024-04-13T12:17:17.872Z,21.13
2024-04-13T12:19:46.310Z,21.09
2024-04-13T12:22:13.717Z,20.87
2024-04-13T12:24:41.117Z,20.68
2024-04-13T12:27:08.434Z,20.72
2024-04-13T12:29:35.723Z,20.93
2024-04-13T12:32:04.236Z,21.01
2024-04-13T12:34:31.559Z,20.90
2024-04-13T12:36:59.514Z,20.80
2024-04-13T12:39:28.548Z,20.67
2024-04-13T12:41:57.404Z,20.64
2024-04-13T12:44:25.406Z,20.64
2024-04-13T12:46:52.653Z,20.66
2024-04-13T12:49:20.644Z,20.62
2024-04-13T12:51:48.081Z,20.58
2024-04-13T12:54:15.461Z,20.56
2024-04-13T12:56:44.084Z,20.50
2024-04-13T12:59:11.348Z,20.40
2024-04-13T13:01:39.974Z,20.35
2024-04-13T13:04:07.726Z,20.23
2024-04-13T13:06:35.190Z,20.20
2024-04-13T13:09:02.455Z,20.28
2024-04-13T13:11:29.840Z,20.41
2024-04-13T13:13:57.215Z,20.44
2024-04-13T13:16:24.623Z,20.45
2024-04-13T13:18:52.099Z,20.45
2024-04-13T13:21:19.877Z,20.47
2024-04-13T13:23:47.151Z,20.43
2024-04-13T13:26:14.541Z,20.38
2024-04-13T13:28:41.909Z,20.40
2024-04-13T13:31:09.214Z,20.44
2024-04-13T13:33:36.755Z,20.47
2024-04-13T13:36:05.273Z,20.44
2024-04-13T13:38:32.616Z,20.37
2024-04-13T13:40:59.918Z,20.23
2024-04-13T13:43:27.529Z,20.20
2024-04-13T13:45:54.883Z,20.18
2024-04-13T13:48:22.402Z,20.15
2024-04-13T13:50:49.829Z,20.09
2024-04-13T13:53:17.053Z,20.00
2024-04-13T13:55:44.527Z,19.88
2024-04-13T13:58:11.766Z,19.84
2024-04-13T14:00:40.234Z,19.85
2024-04-13T14:03:11.035Z,19.86
2024-04-13T14:05:38.661Z,19.84
2024-04-13T14:08:06.818Z,19.83
2024-04-13T14:10:34.213Z,19.85
2024-04-13T14:13:01.576Z,19.90
2024-04-13T14:15:31.059Z,19.91
2024-04-13T14:17:58.382Z,19.93
2024-04-13T14:20:26.157Z,19.95
2024-04-13T14:22:53.825Z,19.99
2024-04-13T14:25:21.288Z,20.11
2024-04-13T14:27:48.658Z,20.27
2024-04-13T14:30:16.436Z,20.32
2024-04-13T14:32:43.851Z,20.25
2024-04-13T14:35:11.643Z,20.11
2024-04-13T14:37:38.898Z,20.02
2024-04-13T14:40:07.372Z,20.09
2024-04-13T14:42:34.721Z,20.18
2024-04-13T14:45:02.168Z,20.23
2024-04-13T14:47:29.614Z,20.17
2024-04-13T14:49:57.060Z,20.06
2024-04-13T14:52:24.440Z,20.01
2024-04-13T14:54:51.743Z,20.06
2024-04-13T14:57:19.143Z,20.18
2024-04-13T14:59:46.512Z,20.28
2024-04-13T15:02:13.835Z,20.42
2024-04-13T15:04:41.471Z,20.40
2024-04-13T15:07:09.520Z,20.20
2024-04-13T15:09:36.793Z,20.04
2024-04-13T15:12:04.834Z,19.95
2024-04-13T15:14:32.092Z,19.85
2024-04-13T15:18:27.933Z,19.48
2024-04-13T15:20:59.476Z,19.61
2024-04-13T15:23:26.795Z,19.58
2024-04-13T15:25:54.947Z,19.51
2024-04-13T15:28:22.369Z,19.52
2024-04-13T15:30:49.935Z,19.50
2024-04-13T15:33:17.680Z,19.44
2024-04-13T15:35:45.330Z,19.45
2024-04-13T15:38:13.086Z,19.59
2024-04-13T15:40:40.606Z,19.63
2024-04-13T15:43:07.937Z,19.51
2024-04-13T15:45:35.204Z,19.38
2024-04-13T15:48:02.754Z,19.25
2024-04-13T15:50:30.147Z,19.18
2024-04-13T15:52:58.351Z,19.05
2024-04-13T15:55:26.786Z,19.01
2024-04-13T15:57:54.766Z,18.94
2024-04-13T16:00:22.379Z,18.93
2024-04-13T16:02:49.799Z,18.91
2024-04-13T16:05:17.195Z,18.93
2024-04-13T16:07:44.581Z,18.95
2024-04-13T16:10:11.961Z,19.01
2024-04-13T16:12:39.758Z,19.12
2024-04-13T16:15:10.009Z,19.18
2024-04-13T16:17:37.341Z,19.20
2024-04-13T16:20:06.387Z,19.20
2024-04-13T16:22:33.940Z,19.14
2024-04-13T16:25:01.589Z,19.09
2024-04-13T16:27:29.493Z,19.03
2024-04-13T16:29:56.724Z,18.99
2024-04-13T16:32:24.047Z,18.99
2024-04-13T16:34:51.309Z,18.98
2024-04-13T16:37:18.535Z,18.94
2024-04-13T16:39:45.859Z,18.90
2024-04-13T16:42:13.255Z,18.86
2024-04-13T16:44:40.594Z,18.82
2024-04-13T16:47:07.839Z,18.71
2024-04-13T16:49:35.095Z,18.60
2024-04-13T16:52:02.379Z,18.49
2024-04-13T16:54:29.946Z,18.34
2024-04-13T16:56:57.236Z,18.33
2024-04-13T16:59:25.470Z,18.27
2024-04-13T17:01:52.769Z,18.21
2024-04-13T17:04:20.080Z,18.11
2024-04-13T17:06:48.032Z,18.05
2024-04-13T17:09:19.291Z,17.97
2024-04-13T17:11:46.680Z,17.94
2024-04-13T17:14:14.365Z,17.92
2024-04-13T17:16:41.632Z,17.88
2024-04-13T17:19:08.867Z,17.85
2024-04-13T17:21:36.395Z,17.85
2024-04-13T17:24:04.184Z,17.84
2024-04-13T17:26:31.534Z,17.81
2024-04-13T17:28:58.720Z,17.80
2024-04-13T17:31:26.048Z,17.79
2024-04-13T17:33:53.397Z,17.78
2024-04-13T17:36:21.497Z,17.77
2024-04-13T17:38:49.391Z,17.76
2024-04-13T17:41:16.810Z,17.74
2024-04-13T17:43:44.257Z,17.74
2024-04-13T17:46:11.602Z,17.70
2024-04-13T17:48:39.104Z,17.69
2024-04-13T17:51:07.330Z,17.68
2024-04-13T17:53:34.972Z,17.66
2024-04-13T17:56:02.224Z,17.64
2024-04-13T17:58:29.462Z,17.63
2024-04-13T18:00:56.820Z,17.61
2024-04-13T18:03:24.318Z,17.58
2024-04-13T18:05:51.689Z,17.56
2024-04-13T18:08:19.005Z,17.54
2024-04-13T18:10:46.265Z,17.53
2024-04-13T18:13:13.580Z,17.53
2024-04-13T18:15:40.971Z,17.54
2024-04-13T18:18:09.506Z,17.56
2024-04-13T18:20:36.839Z,17.58
2024-04-13T18:23:04.223Z,17.60
2024-04-13T18:25:34.555Z,17.60
2024-04-13T18:28:01.885Z,17.60
2024-04-13T18:30:29.288Z,17.60
2024-04-13T18:32:56.685Z,17.60
2024-04-13T18:35:24.105Z,17.61
2024-04-13T18:37:51.419Z,17.62
2024-04-13T18:40:18.737Z,17.62
2024-04-13T18:42:45.990Z,17.62
2024-04-13T18:45:13.998Z,17.63
2024-04-13T18:47:42.196Z,17.61
2024-04-13T18:50:11.460Z,17.62
2024-04-13T18:52:38.708Z,17.60
2024-04-13T18:55:12.369Z,17.58
2024-04-13T18:57:40.923Z,17.58
2024-04-13T19:00:08.962Z,17.56
2024-04-13T19:02:36.167Z,17.56
2024-04-13T19:05:03.628Z,17.56
2024-04-13T19:07:30.974Z,17.56
2024-04-13T19:09:58.278Z,17.55
2024-04-13T19:12:27.293Z,17.55
2024-04-13T19:14:54.768Z,17.54
2024-04-13T19:17:22.020Z,17.55
2024-04-13T19:19:50.899Z,17.54
2024-04-13T19:22:18.170Z,17.54
2024-04-13T19:24:45.373Z,17.54
2024-04-13T19:27:12.795Z,17.54
2024-04-13T19:29:40.425Z,17.53
2024-04-13T19:32:07.974Z,17.54
2024-04-13T19:34:35.242Z,17.53
2024-04-13T19:37:03.454Z,17.52
2024-04-13T19:39:30.928Z,17.50
2024-04-13T19:42:00.806Z,17.50
2024-04-13T19:44:28.721Z,17.48
2024-04-13T19:46:55.955Z,17.45
2024-04-13T19:49:23.192Z,17.42
2024-04-13T19:51:50.542Z,17.39
2024-04-13T19:54:17.876Z,17.35
2024-04-13T19:56:45.130Z,17.30
2024-04-13T19:59:12.491Z,17.25
2024-04-13T20:01:41.500Z,17.19
2024-04-13T20:04:08.895Z,17.13
2024-04-13T20:06:36.236Z,17.06
2024-04-13T20:09:04.665Z,16.98
2024-04-13T20:11:32.618Z,16.89
2024-04-13T20:14:00.425Z,16.82
2024-04-13T20:16:46.491Z,16.77
2024-04-13T20:19:13.856Z,16.69
2024-04-13T20:21:41.106Z,16.62
2024-04-13T20:24:08.489Z,16.54
2024-04-13T20:26:35.719Z,16.48
2024-04-13T20:29:03.003Z,16.41
2024-04-13T20:31:30.264Z,16.34
2024-04-13T20:33:57.532Z,16.28
2024-04-13T20:36:24.818Z,16.20
2024-04-13T20:38:52.296Z,16.16
2024-04-13T20:41:19.514Z,16.12
2024-04-13T20:43:47.314Z,16.07
2024-04-13T20:46:14.589Z,16.03
2024-04-13T20:48:41.998Z,15.97
2024-04-13T20:51:09.316Z,15.92
2024-04-13T20:53:36.676Z,15.87
2024-04-13T20:56:04.873Z,15.82
2024-04-13T20:58:32.034Z,15.80
2024-04-13T21:01:02.293Z,15.78
2024-04-13T21:03:30.574Z,15.76
2024-04-13T21:05:57.967Z,15.74
2024-04-13T21:08:25.393Z,15.72
2024-04-13T21:10:52.632Z,15.76
2024-04-13T21:13:20.148Z,15.80
2024-04-13T21:15:48.338Z,15.84
2024-04-13T21:18:16.729Z,15.82
2024-04-13T21:20:44.064Z,15.79
2024-04-13T21:23:12.105Z,15.72
2024-04-13T21:25:39.549Z,15.69
2024-04-13T21:28:07.881Z,15.64
2024-04-13T21:30:38.644Z,15.58
2024-04-13T21:33:06.052Z,15.53
2024-04-13T21:35:33.301Z,15.55
2024-04-13T21:38:00.655Z,15.53
2024-04-13T21:40:27.919Z,15.44
2024-04-13T21:42:55.405Z,15.37
2024-04-13T21:45:22.946Z,15.31
2024-04-13T21:47:50.320Z,15.26
2024-04-13T21:50:18.050Z,15.25
2024-04-13T21:52:45.260Z,15.17
2024-04-13T21:55:12.462Z,15.14
2024-04-13T21:57:39.650Z,15.03
2024-04-13T22:00:08.677Z,14.86
2024-04-13T22:02:40.999Z,14.79
2024-04-13T22:05:09.879Z,14.73
2024-04-13T22:07:37.046Z,14.64
2024-04-13T22:10:04.510Z,14.56
2024-04-13T22:12:31.953Z,14.52
2024-04-13T22:14:59.373Z,14.45
2024-04-13T22:17:26.635Z,14.40
2024-04-13T22:19:54.097Z,14.37
2024-04-13T22:22:22.590Z,14.39
2024-04-13T22:24:50.098Z,14.44
2024-04-13T22:27:17.417Z,14.49
2024-04-13T22:29:44.600Z,14.51
2024-04-13T22:32:11.789Z,14.51
2024-04-13T22:34:38.986Z,14.49
2024-04-13T22:37:06.390Z,14.46
2024-04-13T22:39:34.308Z,14.42
2024-04-13T22:42:02.830Z,14.36
2024-04-13T22:44:30.597Z,14.33
2024-04-13T22:46:57.883Z,14.35
2024-04-13T22:49:25.890Z,14.40
2024-04-13T22:51:53.254Z,14.42
2024-04-13T22:54:20.653Z,14.45
2024-04-13T22:56:47.862Z,14.43
2024-04-13T22:59:15.069Z,14.43
2024-04-13T23:01:42.286Z,14.38
2024-04-13T23:04:09.663Z,14.34
2024-04-13T23:06:37.739Z,14.33
2024-04-13T23:09:05.009Z,14.35
2024-04-13T23:11:32.258Z,14.36
2024-04-13T23:14:00.896Z,14.37
2024-04-13T23:16:31.190Z,14.36
2024-04-13T23:18:59.711Z,14.37
2024-04-13T23:21:27.167Z,14.30
2024-04-13T23:23:56.584Z,14.19
2024-04-13T23:26:24.056Z,14.14
2024-04-13T23:28:51.223Z,14.18
2024-04-13T23:31:18.478Z,14.20
2024-04-13T23:33:46.396Z,14.14
2024-04-13T23:36:13.585Z,14.08
2024-04-13T23:38:40.765Z,14.02
2024-04-13T23:41:07.952Z,13.96
2024-04-13T23:43:35.126Z,13.89
2024-04-13T23:46:03.321Z,13.83
2024-04-13T23:48:31.093Z,13.81
2024-04-13T23:50:58.343Z,13.77
2024-04-13T23:53:25.685Z,13.74
2024-04-13T23:55:52.939Z,13.72
2024-04-13T23:58:22.436Z,13.63
